Time;durP1;ratioP1;P1;durP2;ratioP2;P2;SDS_P1;SDS_P2;PMS_P1;PMS_P2;Temp;Humidity;BMP_temperature;BMP_pressure;BME280_temperature;BME280_humidity;BME280_pressure;Samples;Min_cycle;Max_cycle;Signal;HPM_P1;HPM_P2
2022/01/26 00:00:30;;;;;;;43.77;18.30;;;;;;;;;;5006661;28;20762;-81
2022/01/26 00:05:48;;;;;;;38.87;18.97;;;;;;;;;;5044218;28;20242;-81
2022/01/26 00:08:22;;;;;;;35.33;18.87;;;;;;;;;;5043847;28;20380;-81
2022/01/26 00:10:49;;;;;;;35.10;16.53;;;;;;;;;;5029191;28;20310;-82
2022/01/26 00:13:16;;;;;;;39.47;18.60;;;;;;;;;;5046713;28;20245;-82
2022/01/26 00:15:43;;;;;;;41.10;18.90;;;;;;;;;;5046093;28;20634;-82
2022/01/26 00:18:10;;;;;;;42.47;19.33;;;;;;;;;;5043623;28;20226;-81
2022/01/26 00:20:42;;;;;;;45.93;19.63;;;;;;;;;;5043154;28;20237;-82
2022/01/26 00:23:32;;;;;;;47.73;19.30;;;;;;;;;;5031265;28;20242;-81
2022/01/26 00:26:06;;;;;;;39.97;17.90;;;;;;;;;;5035925;28;20204;-81
2022/01/26 00:28:46;;;;;;;47.47;20.13;;;;;;;;;;5046366;28;20267;-81
2022/01/26 00:32:00;;;;;;;41.70;17.97;;;;;;;;;;5036108;28;20250;-82
2022/01/26 00:39:27;;;;;;;44.27;20.77;;;;;;;;;;5033698;28;20223;-81
2022/01/26 00:41:58;;;;;;;44.63;17.97;;;;;;;;;;5046090;28;20244;-81
2022/01/26 00:44:34;;;;;;;33.07;15.30;;;;;;;;;;5047104;28;20241;-81
2022/01/26 00:47:01;;;;;;;37.60;17.57;;;;;;;;;;5045766;28;20230;-81
2022/01/26 00:49:28;;;;;;;35.90;15.67;;;;;;;;;;5046177;28;20207;-81
2022/01/26 00:51:55;;;;;;;37.27;17.70;;;;;;;;;;5046129;28;20246;-81
2022/01/26 00:54:22;;;;;;;38.87;17.20;;;;;;;;;;5045954;28;20281;-81
2022/01/26 00:56:50;;;;;;;37.70;16.10;;;;;;;;;;5046494;28;20206;-81
2022/01/26 00:59:19;;;;;;;32.47;15.53;;;;;;;;;;5047011;28;20201;-82
2022/01/26 01:01:46;;;;;;;30.67;15.40;;;;;;;;;;5026877;28;20233;-80
2022/01/26 01:04:13;;;;;;;33.07;14.97;;;;;;;;;;5039896;28;20212;-81
2022/01/26 01:06:46;;;;;;;27.27;13.40;;;;;;;;;;5039493;28;20206;-81
2022/01/26 01:09:14;;;;;;;38.83;17.30;;;;;;;;;;5039049;28;20661;-82
2022/01/26 01:11:41;;;;;;;34.80;15.50;;;;;;;;;;5037186;28;20219;-81
2022/01/26 01:14:10;;;;;;;34.43;13.70;;;;;;;;;;5038052;28;20209;-82
2022/01/26 01:16:39;;;;;;;27.10;12.97;;;;;;;;;;5039207;28;20261;-82
2022/01/26 01:19:11;;;;;;;33.93;13.67;;;;;;;;;;5038728;28;20278;-81
2022/01/26 01:24:49;;;;;;;33.20;14.90;;;;;;;;;;5030855;28;20357;-81
2022/01/26 01:27:39;;;;;;;31.53;13.10;;;;;;;;;;5038109;28;20229;-81
2022/01/26 01:30:11;;;;;;;32.17;13.47;;;;;;;;;;5038832;28;20258;-80
2022/01/26 01:32:51;;;;;;;22.90;12.57;;;;;;;;;;5037446;28;20256;-82
2022/01/26 01:35:18;;;;;;;33.47;13.73;;;;;;;;;;5038221;28;20202;-82
2022/01/26 01:37:46;;;;;;;27.73;13.60;;;;;;;;;;5038110;28;20317;-81
2022/01/26 01:40:13;;;;;;;28.47;13.47;;;;;;;;;;5037687;28;20209;-82
2022/01/26 01:42:40;;;;;;;30.73;14.20;;;;;;;;;;5035134;28;20234;-81
2022/01/26 01:45:08;;;;;;;33.73;14.13;;;;;;;;;;5037617;28;20205;-82
2022/01/26 01:47:35;;;;;;;39.47;15.80;;;;;;;;;;5036571;28;20238;-82
2022/01/26 01:50:09;;;;;;;27.37;13.63;;;;;;;;;;5037982;28;20203;-82
2022/01/26 01:52:36;;;;;;;29.63;15.63;;;;;;;;;;5037435;28;20240;-81
2022/01/26 01:55:04;;;;;;;35.17;15.90;;;;;;;;;;5038659;28;20202;-82
2022/01/26 01:57:32;;;;;;;31.50;13.23;;;;;;;;;;5038266;28;20226;-82
2022/01/26 02:00:00;;;;;;;29.03;16.67;;;;;;;;;;5036102;28;20217;-81
2022/01/26 02:02:27;;;;;;;36.63;16.10;;;;;;;;;;5035162;28;20586;-82
2022/01/26 02:04:54;;;;;;;39.10;14.73;;;;;;;;;;5036434;28;20206;-81
2022/01/26 02:07:22;;;;;;;34.33;15.67;;;;;;;;;;5036741;28;20231;-81
2022/01/26 02:09:49;;;;;;;31.93;13.73;;;;;;;;;;5037982;28;20221;-82
2022/01/26 02:12:19;;;;;;;30.53;15.53;;;;;;;;;;5038896;28;20238;-81
2022/01/26 02:14:51;;;;;;;26.43;13.13;;;;;;;;;;5040448;28;20203;-81
2022/01/26 02:17:24;;;;;;;28.53;15.00;;;;;;;;;;5038715;28;20666;-80
2022/01/26 02:20:10;;;;;;;32.67;14.03;;;;;;;;;;5042024;28;20613;-81
2022/01/26 02:52:57;;;;;;;29.17;15.20;;;;;;;;;;5028376;28;20311;-81
2022/01/26 02:55:37;;;;;;;43.53;16.37;;;;;;;;;;5041014;28;20191;-82
2022/01/26 03:00:59;;;;;;;51.70;17.23;;;;;;;;;;5004467;28;20599;-82
2022/01/26 03:03:30;;;;;;;39.50;17.37;;;;;;;;;;5019425;28;20326;-81
2022/01/26 03:06:02;;;;;;;46.37;15.90;;;;;;;;;;5019750;28;20203;-81
2022/01/26 03:08:34;;;;;;;35.53;16.03;;;;;;;;;;5019869;28;20317;-81
2022/01/26 03:11:07;;;;;;;30.87;11.47;;;;;;;;;;5021057;28;20231;-81
2022/01/26 03:13:36;;;;;;;40.27;16.10;;;;;;;;;;5036824;28;20309;-82
2022/01/26 03:16:10;;;;;;;39.50;15.17;;;;;;;;;;5040369;28;20570;-81
2022/01/26 03:18:53;;;;;;;47.47;16.37;;;;;;;;;;5037463;28;20230;-81
2022/01/26 03:21:26;;;;;;;41.40;15.60;;;;;;;;;;5034517;28;20233;-81
2022/01/26 03:29:40;;;;;;;36.07;15.40;;;;;;;;;;5021882;28;20245;-82
2022/01/26 03:32:46;;;;;;;40.10;14.60;;;;;;;;;;5031806;28;20268;-81
2022/01/26 03:35:16;;;;;;;42.63;15.13;;;;;;;;;;5049616;28;20618;-83
2022/01/26 03:37:51;;;;;;;36.63;13.93;;;;;;;;;;5048445;28;20248;-82
2022/01/26 03:40:18;;;;;;;42.07;15.97;;;;;;;;;;5050252;28;20207;-82
2022/01/26 03:42:48;;;;;;;45.23;15.20;;;;;;;;;;5040606;28;20302;-80
2022/01/26 03:45:15;;;;;;;46.17;16.47;;;;;;;;;;5032310;28;20238;-82
2022/01/26 03:47:42;;;;;;;49.53;15.77;;;;;;;;;;5032775;28;20238;-81
2022/01/26 03:50:09;;;;;;;37.50;13.87;;;;;;;;;;5044226;28;20202;-81
2022/01/26 03:52:36;;;;;;;40.57;14.50;;;;;;;;;;5047780;28;20237;-82
2022/01/26 03:55:04;;;;;;;44.03;14.43;;;;;;;;;;5049153;28;20207;-83
2022/01/26 03:57:31;;;;;;;45.10;14.77;;;;;;;;;;5037234;28;20257;-81
2022/01/26 03:59:59;;;;;;;39.73;13.37;;;;;;;;;;5048306;28;20205;-82
2022/01/26 04:02:27;;;;;;;39.33;15.50;;;;;;;;;;5048479;28;20250;-82
2022/01/26 04:04:59;;;;;;;42.07;13.77;;;;;;;;;;5048830;28;20210;-82
2022/01/26 04:07:26;;;;;;;38.90;14.37;;;;;;;;;;5048022;28;20256;-82
2022/01/26 04:09:58;;;;;;;35.47;14.83;;;;;;;;;;5048388;28;20222;-82
2022/01/26 04:12:25;;;;;;;41.83;14.97;;;;;;;;;;5047989;28;20297;-81
2022/01/26 04:14:58;;;;;;;43.77;16.47;;;;;;;;;;5047943;28;20202;-82
2022/01/26 04:17:26;;;;;;;36.13;14.80;;;;;;;;;;5047102;28;20221;-81
2022/01/26 04:19:56;;;;;;;47.37;15.43;;;;;;;;;;5047662;28;20206;-82
2022/01/26 04:22:31;;;;;;;33.53;14.40;;;;;;;;;;5047262;28;20230;-82
2022/01/26 04:24:58;;;;;;;33.63;14.00;;;;;;;;;;5046784;28;20196;-81
2022/01/26 04:27:34;;;;;;;38.87;15.93;;;;;;;;;;5047835;28;20320;-81
2022/01/26 04:30:01;;;;;;;30.13;14.37;;;;;;;;;;5050260;28;20255;-82
2022/01/26 04:32:29;;;;;;;41.10;16.30;;;;;;;;;;5049090;28;20526;-82
2022/01/26 04:34:57;;;;;;;38.80;15.20;;;;;;;;;;5049350;28;20214;-81
2022/01/26 04:37:34;;;;;;;43.53;14.90;;;;;;;;;;5049717;28;20239;-81
2022/01/26 04:40:03;;;;;;;39.23;14.63;;;;;;;;;;5049557;28;20216;-81
2022/01/26 04:42:39;;;;;;;18.30;7.53;;;;;;;;;;5049148;28;20246;-81
2022/01/26 04:45:09;;;;;;;33.83;13.67;;;;;;;;;;5049035;28;20232;-81
2022/01/26 04:47:38;;;;;;;32.20;13.60;;;;;;;;;;5048976;28;20233;-81
2022/01/26 04:50:06;;;;;;;31.37;13.07;;;;;;;;;;5048242;28;20229;-81
2022/01/26 04:52:33;;;;;;;28.23;11.53;;;;;;;;;;5045546;28;20276;-81
2022/01/26 04:55:00;;;;;;;31.30;14.83;;;;;;;;;;5040906;28;20206;-81
2022/01/26 04:57:27;;;;;;;27.77;12.77;;;;;;;;;;5041135;28;20232;-81
2022/01/26 04:59:54;;;;;;;29.40;13.10;;;;;;;;;;5040115;28;20201;-81
2022/01/26 05:02:21;;;;;;;28.90;12.67;;;;;;;;;;5040935;28;20252;-81
2022/01/26 05:04:49;;;;;;;28.17;13.70;;;;;;;;;;5040522;28;20203;-81
2022/01/26 05:07:16;;;;;;;24.07;12.97;;;;;;;;;;5040363;28;20234;-81
2022/01/26 05:09:43;;;;;;;31.83;13.60;;;;;;;;;;5041097;28;20233;-81
2022/01/26 05:12:12;;;;;;;26.00;12.23;;;;;;;;;;5039943;28;20599;-81
2022/01/26 05:14:41;;;;;;;28.87;12.93;;;;;;;;;;5041405;28;20209;-81
2022/01/26 05:17:08;;;;;;;28.10;12.10;;;;;;;;;;5039723;28;20235;-81
2022/01/26 05:19:35;;;;;;;35.57;14.33;;;;;;;;;;5039563;28;20736;-81
2022/01/26 05:22:04;;;;;;;31.17;14.10;;;;;;;;;;5039224;28;20237;-81
2022/01/26 05:24:31;;;;;;;28.00;12.73;;;;;;;;;;5039892;28;20211;-81
2022/01/26 05:26:59;;;;;;;29.63;12.80;;;;;;;;;;5039102;28;20233;-81
2022/01/26 05:29:26;;;;;;;26.13;12.93;;;;;;;;;;5039366;28;20226;-81
2022/01/26 05:31:53;;;;;;;32.27;13.53;;;;;;;;;;5039030;28;20240;-81
2022/01/26 05:34:20;;;;;;;26.40;13.23;;;;;;;;;;5039307;28;20237;-81
2022/01/26 05:36:47;;;;;;;29.07;13.70;;;;;;;;;;5038261;28;20212;-81
2022/01/26 05:39:15;;;;;;;30.60;13.60;;;;;;;;;;5039586;28;20680;-81
2022/01/26 05:41:42;;;;;;;28.97;12.93;;;;;;;;;;5038217;28;20600;-81
2022/01/26 05:44:10;;;;;;;34.67;13.37;;;;;;;;;;5039367;28;20217;-81
2022/01/26 05:46:40;;;;;;;29.63;12.67;;;;;;;;;;5039070;28;20213;-81
2022/01/26 05:49:08;;;;;;;27.33;12.80;;;;;;;;;;5042991;28;20236;-81
2022/01/26 05:51:35;;;;;;;31.40;12.60;;;;;;;;;;5042055;28;20231;-81
2022/01/26 05:54:02;;;;;;;29.63;12.90;;;;;;;;;;5042184;28;20212;-81
2022/01/26 05:56:31;;;;;;;27.47;12.57;;;;;;;;;;5042071;28;20674;-81
2022/01/26 05:58:58;;;;;;;27.03;12.80;;;;;;;;;;5041620;28;20562;-81
2022/01/26 06:01:26;;;;;;;29.00;13.77;;;;;;;;;;5041522;28;20745;-81
2022/01/26 06:03:53;;;;;;;24.40;10.53;;;;;;;;;;5041815;28;20240;-81
2022/01/26 06:06:20;;;;;;;31.90;12.57;;;;;;;;;;5042621;28;20214;-81
2022/01/26 06:08:47;;;;;;;25.47;12.40;;;;;;;;;;5038520;28;20336;-84
2022/01/26 06:11:14;;;;;;;29.47;12.10;;;;;;;;;;5036509;28;20241;-84
2022/01/26 06:13:42;;;;;;;28.40;12.30;;;;;;;;;;5035967;28;20250;-83
2022/01/26 06:16:09;;;;;;;30.43;12.17;;;;;;;;;;5037004;28;20268;-84
2022/01/26 06:18:36;;;;;;;25.63;11.67;;;;;;;;;;5036242;28;20256;-84
2022/01/26 06:21:03;;;;;;;27.30;11.53;;;;;;;;;;5036846;28;20904;-84
2022/01/26 06:23:30;;;;;;;22.23;11.63;;;;;;;;;;5035667;28;20283;-84
2022/01/26 06:25:58;;;;;;;28.47;11.67;;;;;;;;;;5036370;28;20202;-84
2022/01/26 06:28:27;;;;;;;24.53;11.43;;;;;;;;;;5035181;28;20234;-84
2022/01/26 06:30:58;;;;;;;24.67;12.07;;;;;;;;;;5036220;28;20233;-85
2022/01/26 06:33:26;;;;;;;27.70;11.63;;;;;;;;;;5034866;28;20876;-85
2022/01/26 06:35:55;;;;;;;21.50;11.50;;;;;;;;;;5035416;28;20210;-85
2022/01/26 06:38:24;;;;;;;25.63;11.10;;;;;;;;;;5034694;28;20238;-85
2022/01/26 06:40:51;;;;;;;26.70;11.93;;;;;;;;;;5035574;28;20279;-84
2022/01/26 06:43:19;;;;;;;26.97;12.07;;;;;;;;;;5034782;28;20234;-83
2022/01/26 06:45:50;;;;;;;23.73;11.43;;;;;;;;;;5036129;28;20305;-84
2022/01/26 06:48:43;;;;;;;24.30;11.83;;;;;;;;;;5035063;28;20246;-84
2022/01/26 06:51:12;;;;;;;24.63;10.80;;;;;;;;;;5038769;28;20703;-83
2022/01/26 06:53:39;;;;;;;19.90;10.47;;;;;;;;;;5035588;28;20265;-84
2022/01/26 06:56:06;;;;;;;25.73;11.63;;;;;;;;;;5036063;28;20221;-84
2022/01/26 06:58:33;;;;;;;21.40;11.03;;;;;;;;;;5034604;28;20238;-84
2022/01/26 07:01:00;;;;;;;25.10;11.97;;;;;;;;;;5034937;28;20234;-84
2022/01/26 07:03:28;;;;;;;21.83;11.77;;;;;;;;;;5034338;28;20237;-84
2022/01/26 07:05:55;;;;;;;22.90;10.97;;;;;;;;;;5034305;28;20678;-84
2022/01/26 07:08:22;;;;;;;18.73;9.77;;;;;;;;;;5035733;28;20245;-84
2022/01/26 07:10:51;;;;;;;21.10;10.33;;;;;;;;;;5035175;28;20234;-86
2022/01/26 07:13:18;;;;;;;19.73;11.97;;;;;;;;;;5033998;28;20235;-86
2022/01/26 07:21:28;;;;;;;24.47;10.90;;;;;;;;;;5034274;28;20233;-86
2022/01/26 07:23:56;;;;;;;21.90;11.20;;;;;;;;;;5033787;28;20769;-85
2022/01/26 07:26:26;;;;;;;22.33;11.33;;;;;;;;;;5034215;28;20286;-84
2022/01/26 07:28:53;;;;;;;26.40;11.67;;;;;;;;;;5033616;28;20241;-85
2022/01/26 07:31:20;;;;;;;23.57;11.17;;;;;;;;;;5034076;28;20254;-85
2022/01/26 07:33:53;;;;;;;21.43;11.13;;;;;;;;;;5032766;28;20233;-85
2022/01/26 07:36:20;;;;;;;22.67;10.90;;;;;;;;;;5033967;28;20245;-84
2022/01/26 07:38:49;;;;;;;23.17;11.70;;;;;;;;;;5033375;28;20248;-83
2022/01/26 07:41:16;;;;;;;22.70;12.33;;;;;;;;;;5040024;28;20317;-82
2022/01/26 07:43:44;;;;;;;20.93;11.80;;;;;;;;;;5020602;28;20261;-83
2022/01/26 07:46:11;;;;;;;24.40;11.90;;;;;;;;;;5019781;28;20581;-82
2022/01/26 07:48:38;;;;;;;19.20;10.93;;;;;;;;;;5035782;28;20260;-82
2022/01/26 07:51:07;;;;;;;21.70;11.90;;;;;;;;;;5038905;28;20245;-82
2022/01/26 07:53:34;;;;;;;21.50;11.53;;;;;;;;;;5034101;28;20249;-84
2022/01/26 07:56:04;;;;;;;21.37;10.80;;;;;;;;;;5033978;28;20300;-84
2022/01/26 07:58:31;;;;;;;21.40;10.63;;;;;;;;;;5016945;28;20238;-84
2022/01/26 08:00:58;;;;;;;22.80;11.27;;;;;;;;;;5013770;28;20241;-84
2022/01/26 08:03:27;;;;;;;25.13;12.47;;;;;;;;;;5028358;28;20239;-84
2022/01/26 08:05:54;;;;;;;20.97;11.93;;;;;;;;;;5033780;28;20211;-84
2022/01/26 08:08:23;;;;;;;17.60;10.77;;;;;;;;;;5032864;28;20284;-84
2022/01/26 08:10:50;;;;;;;24.10;12.33;;;;;;;;;;5032961;28;20235;-84
2022/01/26 08:13:17;;;;;;;5.63;4.70;;;;;;;;;;5018533;28;20239;-84
2022/01/26 08:15:44;;;;;;;14.83;9.20;;;;;;;;;;5007602;28;20683;-84
2022/01/26 08:18:11;;;;;;;20.53;9.33;;;;;;;;;;5012080;28;20246;-85
2022/01/26 08:20:39;;;;;;;20.93;11.73;;;;;;;;;;5012676;28;20227;-84
2022/01/26 08:23:07;;;;;;;20.17;11.27;;;;;;;;;;5013455;28;20238;-83
2022/01/26 08:25:36;;;;;;;19.03;10.90;;;;;;;;;;5016316;28;20214;-85
2022/01/26 08:28:08;;;;;;;14.40;6.83;;;;;;;;;;5031393;28;20944;-84
2022/01/26 08:30:37;;;;;;;22.77;11.87;;;;;;;;;;5024616;28;20297;-84
2022/01/26 08:33:05;;;;;;;10.50;5.83;;;;;;;;;;5012571;28;20289;-84
2022/01/26 08:35:32;;;;;;;26.70;12.67;;;;;;;;;;5016150;28;20214;-85
2022/01/26 08:37:59;;;;;;;16.27;10.30;;;;;;;;;;5023753;28;20714;-85
2022/01/26 08:40:26;;;;;;;18.53;11.40;;;;;;;;;;5032270;28;20206;-85
2022/01/26 08:42:55;;;;;;;19.13;9.67;;;;;;;;;;5031444;28;20242;-84
2022/01/26 08:45:22;;;;;;;21.23;11.37;;;;;;;;;;5031033;28;20202;-85
2022/01/26 08:47:50;;;;;;;20.97;10.93;;;;;;;;;;5032322;28;20234;-85
2022/01/26 08:50:17;;;;;;;14.97;9.40;;;;;;;;;;5031901;28;20328;-85
2022/01/26 08:52:45;;;;;;;18.57;11.20;;;;;;;;;;5031636;28;20268;-85
2022/01/26 08:55:12;;;;;;;14.83;8.70;;;;;;;;;;5032299;28;20565;-85
2022/01/26 08:57:39;;;;;;;14.90;9.87;;;;;;;;;;5031449;28;20238;-85
2022/01/26 09:00:09;;;;;;;18.53;8.43;;;;;;;;;;5032522;28;20846;-85
2022/01/26 09:02:36;;;;;;;17.70;9.47;;;;;;;;;;5031248;28;20258;-85
2022/01/26 09:05:06;;;;;;;15.17;9.10;;;;;;;;;;5032123;28;20286;-85
2022/01/26 09:07:33;;;;;;;17.27;9.63;;;;;;;;;;5032604;28;20237;-88
2022/01/26 09:10:02;;;;;;;18.47;10.07;;;;;;;;;;5033047;28;20237;-88
2022/01/26 09:12:31;;;;;;;16.53;9.73;;;;;;;;;;5031576;28;20233;-88
2022/01/26 09:15:01;;;;;;;13.97;9.37;;;;;;;;;;5032352;28;20279;-87
2022/01/26 09:17:32;;;;;;;14.63;9.20;;;;;;;;;;5031371;28;20234;-88
2022/01/26 09:20:00;;;;;;;14.50;9.43;;;;;;;;;;5032133;28;20194;-85
2022/01/26 09:22:28;;;;;;;14.13;8.70;;;;;;;;;;5035286;28;20237;-85
2022/01/26 09:24:55;;;;;;;14.97;9.00;;;;;;;;;;5035919;28;20728;-85
2022/01/26 09:27:22;;;;;;;19.43;10.57;;;;;;;;;;5034752;28;20240;-85
2022/01/26 09:29:49;;;;;;;7.23;5.77;;;;;;;;;;5035288;28;20226;-86
2022/01/26 09:32:16;;;;;;;10.73;8.60;;;;;;;;;;5035303;28;20732;-85
2022/01/26 09:34:45;;;;;;;16.33;9.43;;;;;;;;;;5035838;28;20203;-84
2022/01/26 09:37:12;;;;;;;15.83;9.07;;;;;;;;;;5035144;28;20234;-85
2022/01/26 09:39:40;;;;;;;14.77;8.73;;;;;;;;;;5037307;28;20217;-84
2022/01/26 09:42:07;;;;;;;11.73;8.70;;;;;;;;;;5036669;28;20368;-84
2022/01/26 09:44:34;;;;;;;12.57;8.77;;;;;;;;;;5035533;28;20218;-85
2022/01/26 09:47:01;;;;;;;15.13;9.27;;;;;;;;;;5035622;28;20833;-82
2022/01/26 09:49:32;;;;;;;14.00;9.50;;;;;;;;;;5039662;28;20210;-82
2022/01/26 09:52:02;;;;;;;14.63;9.80;;;;;;;;;;5039217;28;20955;-84
2022/01/26 09:54:31;;;;;;;11.67;8.87;;;;;;;;;;5036563;28;20244;-84
2022/01/26 09:57:02;;;;;;;14.33;10.63;;;;;;;;;;5034994;28;20288;-85
2022/01/26 09:59:30;;;;;;;15.57;10.10;;;;;;;;;;5035731;28;20206;-85
2022/01/26 10:01:57;;;;;;;17.60;10.43;;;;;;;;;;5034038;28;20245;-85
2022/01/26 10:04:25;;;;;;;16.73;11.63;;;;;;;;;;5035489;28;20229;-84
2022/01/26 10:07:14;;;;;;;18.07;10.63;;;;;;;;;;5035445;28;20240;-85
2022/01/26 10:09:46;;;;;;;19.57;11.57;;;;;;;;;;5039377;28;20558;-82
2022/01/26 10:17:45;;;;;;;15.07;10.10;;;;;;;;;;5039592;28;20716;-82
2022/01/26 10:20:15;;;;;;;13.40;9.87;;;;;;;;;;5040399;28;20231;-82
2022/01/26 10:22:44;;;;;;;16.47;10.87;;;;;;;;;;5039162;28;20233;-83
2022/01/26 10:25:12;;;;;;;17.03;9.83;;;;;;;;;;5037118;28;20229;-83
2022/01/26 10:27:40;;;;;;;17.07;10.20;;;;;;;;;;5037942;28;20265;-84
2022/01/26 10:30:08;;;;;;;17.00;9.83;;;;;;;;;;5039819;28;20240;-83
2022/01/26 10:32:36;;;;;;;14.83;9.37;;;;;;;;;;5032473;28;20313;-83
2022/01/26 10:35:04;;;;;;;17.57;9.20;;;;;;;;;;5034410;28;20214;-83
2022/01/26 10:37:31;;;;;;;12.37;8.67;;;;;;;;;;5036683;28;20226;-83
2022/01/26 10:40:12;;;;;;;9.47;7.60;;;;;;;;;;5036750;28;20217;-83
2022/01/26 10:42:39;;;;;;;12.03;8.93;;;;;;;;;;5036608;28;20242;-83
2022/01/26 10:45:12;;;;;;;14.93;8.37;;;;;;;;;;5037290;28;20210;-83
2022/01/26 10:47:43;;;;;;;11.40;7.33;;;;;;;;;;5027110;28;20258;-83
2022/01/26 10:50:33;;;;;;;14.77;9.00;;;;;;;;;;5017646;28;20227;-83
2022/01/26 10:53:07;;;;;;;13.33;8.30;;;;;;;;;;5016861;28;20267;-83
2022/01/26 10:55:37;;;;;;;11.90;7.97;;;;;;;;;;5017286;28;20730;-83
2022/01/26 10:58:05;;;;;;;8.23;6.20;;;;;;;;;;5016798;28;20242;-82
2022/01/26 11:00:34;;;;;;;9.97;7.50;;;;;;;;;;5017502;28;20252;-83
2022/01/26 11:03:01;;;;;;;11.00;7.77;;;;;;;;;;5029693;28;20238;-83
2022/01/26 11:05:28;;;;;;;8.87;7.40;;;;;;;;;;5039027;28;20217;-83
2022/01/26 11:07:57;;;;;;;11.10;7.47;;;;;;;;;;5026353;28;20270;-83
2022/01/26 11:10:31;;;;;;;8.70;6.63;;;;;;;;;;5017603;28;20706;-83
2022/01/26 11:13:00;;;;;;;11.93;7.73;;;;;;;;;;5016926;28;20237;-83
2022/01/26 11:15:27;;;;;;;6.47;5.27;;;;;;;;;;5017765;28;20219;-83
2022/01/26 11:18:05;;;;;;;14.13;8.20;;;;;;;;;;5016270;28;20707;-83
2022/01/26 11:20:34;;;;;;;7.53;6.60;;;;;;;;;;5015142;28;20722;-83
2022/01/26 11:23:02;;;;;;;9.07;7.90;;;;;;;;;;5015619;28;20238;-83
2022/01/26 11:25:30;;;;;;;10.53;8.23;;;;;;;;;;5013895;28;20660;-83
2022/01/26 11:27:58;;;;;;;11.77;8.33;;;;;;;;;;5003454;28;20231;-82
2022/01/26 11:30:29;;;;;;;11.10;8.70;;;;;;;;;;5017492;28;20215;-83
2022/01/26 11:32:58;;;;;;;12.70;9.00;;;;;;;;;;5027489;28;20249;-83
2022/01/26 11:35:26;;;;;;;15.63;10.00;;;;;;;;;;5037590;28;20237;-83
2022/01/26 11:38:05;;;;;;;11.00;8.30;;;;;;;;;;5025209;28;20239;-83
2022/01/26 11:46:10;;;;;;;14.50;9.73;;;;;;;;;;4953999;28;20211;-83
2022/01/26 11:48:37;;;;;;;17.07;10.23;;;;;;;;;;4997194;28;20294;-83
2022/01/26 11:51:05;;;;;;;15.07;8.83;;;;;;;;;;5001404;28;20238;-83
2022/01/26 11:53:33;;;;;;;12.30;8.83;;;;;;;;;;4997975;28;20242;-83
2022/01/26 11:56:06;;;;;;;13.27;8.60;;;;;;;;;;4997506;28;20208;-83
2022/01/26 11:58:35;;;;;;;12.90;9.50;;;;;;;;;;4998047;28;20247;-83
2022/01/26 12:01:14;;;;;;;12.50;8.37;;;;;;;;;;5015403;28;20234;-83
2022/01/26 12:03:48;;;;;;;12.97;8.70;;;;;;;;;;5034688;28;20235;-83
2022/01/26 12:06:20;;;;;;;11.93;8.63;;;;;;;;;;5036048;28;20621;-83
2022/01/26 12:08:47;;;;;;;9.20;7.03;;;;;;;;;;5035684;28;20299;-83
2022/01/26 12:11:15;;;;;;;12.60;7.83;;;;;;;;;;5036763;28;20245;-83
2022/01/26 12:13:43;;;;;;;12.93;9.27;;;;;;;;;;5036366;28;20226;-82
2022/01/26 12:16:13;;;;;;;11.57;8.70;;;;;;;;;;5040798;28;20278;-81
2022/01/26 12:18:46;;;;;;;11.40;8.27;;;;;;;;;;5020876;28;20234;-82
2022/01/26 12:32:35;;;;;;;11.63;8.93;;;;;;;;;;5014559;28;20265;-83
2022/01/26 12:35:19;;;;;;;16.87;9.83;;;;;;;;;;5005883;28;20562;-83
2022/01/26 12:38:02;;;;;;;14.00;9.20;;;;;;;;;;5025429;28;20273;-83
2022/01/26 12:43:15;;;;;;;13.67;9.77;;;;;;;;;;5020516;28;20658;-83
2022/01/26 12:45:43;;;;;;;13.17;9.33;;;;;;;;;;5015215;28;20210;-83
2022/01/26 12:48:10;;;;;;;13.67;8.87;;;;;;;;;;4995848;28;20243;-83
2022/01/26 12:50:39;;;;;;;12.43;9.20;;;;;;;;;;5009778;28;20691;-83
2022/01/26 12:53:07;;;;;;;14.73;9.20;;;;;;;;;;5027160;28;20243;-84
2022/01/26 12:55:36;;;;;;;14.23;9.87;;;;;;;;;;5034461;28;20225;-83
2022/01/26 12:58:04;;;;;;;14.10;8.80;;;;;;;;;;5021258;28;20246;-83
2022/01/26 13:00:38;;;;;;;11.93;8.57;;;;;;;;;;5014915;28;20312;-84
2022/01/26 13:03:10;;;;;;;15.37;10.50;;;;;;;;;;5027497;28;20260;-83
2022/01/26 13:05:37;;;;;;;11.80;6.10;;;;;;;;;;5061362;22;20240;-82
2022/01/26 13:08:06;;;;;;;18.30;10.53;;;;;;;;;;5050214;28;20584;-82
2022/01/26 13:10:35;;;;;;;13.37;9.87;;;;;;;;;;5046561;28;20207;-82
2022/01/26 13:13:12;;;;;;;17.13;9.70;;;;;;;;;;5032708;28;20304;-82
2022/01/26 13:15:45;;;;;;;15.97;10.13;;;;;;;;;;5033817;28;20222;-82
2022/01/26 13:18:20;;;;;;;13.73;8.37;;;;;;;;;;5028333;28;20262;-82
2022/01/26 13:21:09;;;;;;;16.30;10.67;;;;;;;;;;5013120;28;20583;-82
2022/01/26 13:23:46;;;;;;;13.57;9.97;;;;;;;;;;4999887;28;20232;-82
2022/01/26 13:26:23;;;;;;;13.20;9.77;;;;;;;;;;5002615;28;20211;-82
2022/01/26 13:29:03;;;;;;;14.40;9.07;;;;;;;;;;5012446;28;20274;-82
2022/01/26 13:32:01;;;;;;;16.73;10.33;;;;;;;;;;5012784;28;20604;-82
2022/01/26 13:37:25;;;;;;;8.10;6.80;;;;;;;;;;5012538;28;20232;-82
2022/01/26 13:40:06;;;;;;;12.90;9.40;;;;;;;;;;5020890;28;20218;-82
2022/01/26 13:45:54;;;;;;;13.50;8.70;;;;;;;;;;5090672;27;20562;-81
2022/01/26 13:51:12;;;;;;;8.20;6.23;;;;;;;;;;5048828;28;20272;-81
2022/01/26 13:53:51;;;;;;;14.47;10.43;;;;;;;;;;5048707;28;20229;-82
2022/01/26 13:56:30;;;;;;;14.77;9.77;;;;;;;;;;5049495;28;20731;-82
2022/01/26 13:59:08;;;;;;;12.97;9.33;;;;;;;;;;5059862;28;20221;-82
2022/01/26 14:01:41;;;;;;;16.60;9.87;;;;;;;;;;5067809;28;20209;-81
2022/01/26 14:04:08;;;;;;;9.70;7.10;;;;;;;;;;5068336;28;20619;-82
2022/01/26 14:06:35;;;;;;;6.60;5.90;;;;;;;;;;5057716;28;20248;-82
2022/01/26 14:09:02;;;;;;;12.97;9.40;;;;;;;;;;5066169;28;20255;-83
2022/01/26 14:11:29;;;;;;;14.77;9.43;;;;;;;;;;5068484;28;20240;-84
2022/01/26 14:13:58;;;;;;;12.30;8.37;;;;;;;;;;5068514;28;20232;-83
2022/01/26 14:16:26;;;;;;;15.77;8.67;;;;;;;;;;5053935;28;20216;-83
2022/01/26 14:19:14;;;;;;;15.70;9.67;;;;;;;;;;5067485;28;20233;-83
2022/01/26 14:22:04;;;;;;;10.97;7.83;;;;;;;;;;5067720;28;20216;-83
2022/01/26 14:24:39;;;;;;;14.73;10.43;;;;;;;;;;5068275;28;20231;-84
2022/01/26 14:27:07;;;;;;;10.23;7.77;;;;;;;;;;5070778;28;20232;-84
2022/01/26 14:29:54;;;;;;;14.47;8.90;;;;;;;;;;5076311;28;20324;-84
2022/01/26 14:32:43;;;;;;;13.07;9.03;;;;;;;;;;5070508;28;20272;-84
2022/01/26 14:35:27;;;;;;;12.93;9.13;;;;;;;;;;5070399;28;20299;-84
2022/01/26 14:40:57;;;;;;;14.73;9.47;;;;;;;;;;5050634;28;20202;-83
2022/01/26 14:52:33;;;;;;;11.67;8.30;;;;;;;;;;5023829;28;20218;-83
2022/01/26 14:55:25;;;;;;;14.13;9.23;;;;;;;;;;5047292;28;20661;-83
2022/01/26 15:01:02;;;;;;;17.77;10.33;;;;;;;;;;5054659;28;20197;-83
2022/01/26 15:09:30;;;;;;;16.53;10.40;;;;;;;;;;5056784;28;20247;-83
2022/01/26 15:18:59;;;;;;;14.50;9.87;;;;;;;;;;5056218;28;20236;-84
2022/01/26 15:34:59;;;;;;;17.53;10.77;;;;;;;;;;5047865;28;20728;-84
2022/01/26 15:40:26;;;;;;;22.23;12.33;;;;;;;;;;5036303;28;20345;-85
2022/01/26 15:51:13;;;;;;;19.90;11.20;;;;;;;;;;5051170;28;20186;-85
2022/01/26 15:59:35;;;;;;;13.80;9.10;;;;;;;;;;5033912;28;20570;-84
2022/01/26 16:07:40;;;;;;;21.73;11.67;;;;;;;;;;5050193;28;20309;-85
2022/01/26 16:16:29;;;;;;;20.57;12.10;;;;;;;;;;5052352;28;20239;-85
2022/01/26 16:21:22;;;;;;;15.37;9.27;;;;;;;;;;5046530;28;20564;-85
2022/01/26 16:27:02;;;;;;;21.23;12.43;;;;;;;;;;5047425;28;20208;-86
2022/01/26 16:35:24;;;;;;;25.03;13.37;;;;;;;;;;5031960;28;20324;-85
2022/01/26 16:38:01;;;;;;;23.17;13.77;;;;;;;;;;5052052;28;20237;-85
2022/01/26 17:03:10;;;;;;;24.60;13.93;;;;;;;;;;5034425;28;20736;-82
2022/01/26 17:11:33;;;;;;;30.70;15.30;;;;;;;;;;5045903;28;20196;-82
2022/01/26 17:25:55;;;;;;;24.43;14.07;;;;;;;;;;5046693;28;20263;-82
2022/01/26 18:04:16;;;;;;;31.70;14.80;;;;;;;;;;5050351;28;20229;-79
2022/01/26 18:17:57;;;;;;;31.43;16.33;;;;;;;;;;5050571;28;20253;-79
2022/01/26 18:26:14;;;;;;;28.33;15.83;;;;;;;;;;5033819;28;20236;-79
2022/01/26 18:31:56;;;;;;;31.57;15.40;;;;;;;;;;5041287;28;20208;-79
2022/01/26 18:50:54;;;;;;;25.93;13.97;;;;;;;;;;5034407;28;20214;-79
2022/01/26 18:53:21;;;;;;;27.03;14.00;;;;;;;;;;5034422;28;20288;-79
2022/01/26 18:55:48;;;;;;;31.73;16.17;;;;;;;;;;5040399;28;20221;-79
2022/01/26 18:58:15;;;;;;;37.40;17.77;;;;;;;;;;5054733;28;20721;-79
2022/01/26 19:00:44;;;;;;;27.60;13.23;;;;;;;;;;5049982;28;20213;-79
2022/01/26 19:03:11;;;;;;;29.57;15.07;;;;;;;;;;5043579;28;20659;-79
2022/01/26 19:05:38;;;;;;;12.77;9.57;;;;;;;;;;5039285;28;20241;-79
2022/01/26 19:08:05;;;;;;;25.30;13.07;;;;;;;;;;5052663;28;20244;-79
2022/01/26 19:10:32;;;;;;;27.50;15.50;;;;;;;;;;5046635;28;20206;-79
2022/01/26 19:12:59;;;;;;;26.93;13.20;;;;;;;;;;5042833;28;20241;-79
2022/01/26 19:15:30;;;;;;;27.87;14.97;;;;;;;;;;5053366;28;20226;-79
2022/01/26 19:18:03;;;;;;;25.53;14.07;;;;;;;;;;5042305;28;20238;-79
2022/01/26 19:20:44;;;;;;;28.57;15.67;;;;;;;;;;5040615;28;20198;-79
2022/01/26 19:26:00;;;;;;;38.63;17.57;;;;;;;;;;5038071;28;20719;-79